sensor_id;sensor_type;location;lat;lon;timestamp;pressure;altitude;pressure_sealevel;temperature;humidity
21129;BME280;10722;51.910;8.352;2023-04-20T00:01:40;101084.97;;;8.12;53.69
21129;BME280;10722;51.910;8.352;2023-04-20T00:04:25;101081.31;;;8.05;54.18
21129;BME280;10722;51.910;8.352;2023-04-20T00:07:11;101094.28;;;8.08;54.42
21129;BME280;10722;51.910;8.352;2023-04-20T00:09:56;101092.28;;;7.99;54.80
21129;BME280;10722;51.910;8.352;2023-04-20T00:12:41;101092.06;;;7.93;54.86
21129;BME280;10722;51.910;8.352;2023-04-20T00:15:26;101102.44;;;7.95;55.44
21129;BME280;10722;51.910;8.352;2023-04-20T00:18:12;101105.16;;;7.99;56.03
21129;BME280;10722;51.910;8.352;2023-04-20T00:20:57;101103.22;;;7.92;55.71
21129;BME280;10722;51.910;8.352;2023-04-20T00:23:42;101105.81;;;7.94;56.48
21129;BME280;10722;51.910;8.352;2023-04-20T00:26:27;101102.38;;;7.93;56.59
21129;BME280;10722;51.910;8.352;2023-04-20T00:29:13;101094.72;;;7.95;56.46
21129;BME280;10722;51.910;8.352;2023-04-20T00:31:58;101097.78;;;7.84;56.98
21129;BME280;10722;51.910;8.352;2023-04-20T00:34:43;101113.44;;;7.89;57.40
21129;BME280;10722;51.910;8.352;2023-04-20T00:37:28;101123.56;;;7.84;57.88
21129;BME280;10722;51.910;8.352;2023-04-20T00:40:13;101120.09;;;7.84;58.07
21129;BME280;10722;51.910;8.352;2023-04-20T00:43:08;101126.13;;;7.84;58.97
21129;BME280;10722;51.910;8.352;2023-04-20T00:45:54;101141.19;;;7.74;59.80
21129;BME280;10722;51.910;8.352;2023-04-20T00:48:39;101136.81;;;7.71;60.48
21129;BME280;10722;51.910;8.352;2023-04-20T00:51:24;101139.56;;;7.76;60.85
21129;BME280;10722;51.910;8.352;2023-04-20T00:54:11;101144.69;;;7.74;61.37
21129;BME280;10722;51.910;8.352;2023-04-20T00:56:57;101147.47;;;7.80;61.66
21129;BME280;10722;51.910;8.352;2023-04-20T00:59:43;101149.97;;;7.79;62.05
21129;BME280;10722;51.910;8.352;2023-04-20T01:02:29;101148.06;;;7.73;62.78
21129;BME280;10722;51.910;8.352;2023-04-20T01:05:14;101145.75;;;7.81;63.39
21129;BME280;10722;51.910;8.352;2023-04-20T01:08:00;101143.84;;;7.75;63.72
21129;BME280;10722;51.910;8.352;2023-04-20T01:10:45;101145.28;;;7.67;64.28
21129;BME280;10722;51.910;8.352;2023-04-20T01:13:30;101148.03;;;7.72;65.02
21129;BME280;10722;51.910;8.352;2023-04-20T01:16:15;101157.97;;;7.62;66.02
21129;BME280;10722;51.910;8.352;2023-04-20T01:19:01;101141.97;;;7.47;66.25
21129;BME280;10722;51.910;8.352;2023-04-20T01:21:46;101147.81;;;7.43;67.61
21129;BME280;10722;51.910;8.352;2023-04-20T01:24:31;101157.78;;;7.34;68.72
21129;BME280;10722;51.910;8.352;2023-04-20T01:27:16;101160.00;;;7.25;69.72
21129;BME280;10722;51.910;8.352;2023-04-20T01:30:02;101157.13;;;7.17;70.64
21129;BME280;10722;51.910;8.352;2023-04-20T01:32:47;101171.28;;;7.28;71.42
21129;BME280;10722;51.910;8.352;2023-04-20T01:35:32;101166.84;;;7.02;72.30
21129;BME280;10722;51.910;8.352;2023-04-20T01:38:18;101164.59;;;6.88;73.62
21129;BME280;10722;51.910;8.352;2023-04-20T01:41:06;101177.88;;;6.77;74.80
21129;BME280;10722;51.910;8.352;2023-04-20T01:43:52;101168.53;;;6.79;75.72
21129;BME280;10722;51.910;8.352;2023-04-20T01:46:38;101165.88;;;6.77;76.52
21129;BME280;10722;51.910;8.352;2023-04-20T01:49:23;101156.03;;;6.67;76.76
21129;BME280;10722;51.910;8.352;2023-04-20T01:52:09;101160.25;;;6.65;77.26
21129;BME280;10722;51.910;8.352;2023-04-20T01:54:54;101169.00;;;6.70;77.77
21129;BME280;10722;51.910;8.352;2023-04-20T01:57:39;101158.69;;;6.68;77.99
21129;BME280;10722;51.910;8.352;2023-04-20T02:00:25;101155.28;;;6.69;77.87
21129;BME280;10722;51.910;8.352;2023-04-20T02:03:10;101156.94;;;6.67;78.10
21129;BME280;10722;51.910;8.352;2023-04-20T02:05:55;101153.22;;;6.61;78.20
21129;BME280;10722;51.910;8.352;2023-04-20T02:08:40;101160.06;;;6.60;78.77
21129;BME280;10722;51.910;8.352;2023-04-20T02:11:26;101157.72;;;6.66;78.55
21129;BME280;10722;51.910;8.352;2023-04-20T02:14:10;101153.84;;;6.55;78.87
21129;BME280;10722;51.910;8.352;2023-04-20T02:16:56;101166.19;;;6.64;78.41
21129;BME280;10722;51.910;8.352;2023-04-20T02:19:41;101156.28;;;6.52;78.31
21129;BME280;10722;51.910;8.352;2023-04-20T02:22:27;101158.03;;;6.53;78.78
21129;BME280;10722;51.910;8.352;2023-04-20T02:25:12;101161.38;;;6.50;78.84
21129;BME280;10722;51.910;8.352;2023-04-20T02:27:58;101154.78;;;6.57;78.53
21129;BME280;10722;51.910;8.352;2023-04-20T02:30:43;101147.09;;;6.57;78.65
21129;BME280;10722;51.910;8.352;2023-04-20T02:33:30;101139.00;;;6.48;78.63
21129;BME280;10722;51.910;8.352;2023-04-20T02:36:15;101149.22;;;6.46;79.05
21129;BME280;10722;51.910;8.352;2023-04-20T02:39:01;101152.66;;;6.47;79.29
21129;BME280;10722;51.910;8.352;2023-04-20T02:41:46;101138.81;;;6.43;79.77
21129;BME280;10722;51.910;8.352;2023-04-20T02:44:31;101143.16;;;6.25;79.66
21129;BME280;10722;51.910;8.352;2023-04-20T02:47:16;101147.69;;;6.31;80.10
21129;BME280;10722;51.910;8.352;2023-04-20T02:50:01;101139.19;;;6.32;80.28
21129;BME280;10722;51.910;8.352;2023-04-20T02:52:46;101140.56;;;6.23;80.26
21129;BME280;10722;51.910;8.352;2023-04-20T02:55:31;101147.94;;;6.16;80.77
21129;BME280;10722;51.910;8.352;2023-04-20T02:58:16;101146.53;;;6.22;80.59
21129;BME280;10722;51.910;8.352;2023-04-20T03:01:01;101135.09;;;6.16;80.84
21129;BME280;10722;51.910;8.352;2023-04-20T03:03:46;101138.72;;;6.21;81.06
21129;BME280;10722;51.910;8.352;2023-04-20T03:06:32;101130.94;;;6.19;81.01
21129;BME280;10722;51.910;8.352;2023-04-20T03:09:17;101126.63;;;6.18;81.13
21129;BME280;10722;51.910;8.352;2023-04-20T03:12:03;101121.13;;;6.09;81.29
21129;BME280;10722;51.910;8.352;2023-04-20T03:14:48;101132.19;;;6.08;81.63
21129;BME280;10722;51.910;8.352;2023-04-20T03:17:33;101138.53;;;6.16;82.04
21129;BME280;10722;51.910;8.352;2023-04-20T03:20:19;101134.75;;;6.08;82.06
21129;BME280;10722;51.910;8.352;2023-04-20T03:23:03;101138.47;;;6.15;81.83
21129;BME280;10722;51.910;8.352;2023-04-20T03:25:49;101138.84;;;6.24;82.13
21129;BME280;10722;51.910;8.352;2023-04-20T03:28:34;101128.31;;;6.39;82.09
21129;BME280;10722;51.910;8.352;2023-04-20T03:31:19;101133.22;;;6.33;82.05
21129;BME280;10722;51.910;8.352;2023-04-20T03:34:04;101127.84;;;6.26;82.08
21129;BME280;10722;51.910;8.352;2023-04-20T03:36:49;101125.72;;;6.37;82.71
21129;BME280;10722;51.910;8.352;2023-04-20T03:39:34;101126.44;;;6.14;82.21
21129;BME280;10722;51.910;8.352;2023-04-20T03:42:19;101122.19;;;6.14;82.69
21129;BME280;10722;51.910;8.352;2023-04-20T03:45:05;101126.75;;;6.21;83.04
21129;BME280;10722;51.910;8.352;2023-04-20T03:47:51;101123.00;;;6.13;83.21
21129;BME280;10722;51.910;8.352;2023-04-20T03:50:36;101130.69;;;6.13;83.51
21129;BME280;10722;51.910;8.352;2023-04-20T03:53:21;101125.56;;;6.13;83.71
21129;BME280;10722;51.910;8.352;2023-04-20T03:56:06;101134.63;;;6.05;84.17
21129;BME280;10722;51.910;8.352;2023-04-20T03:58:52;101127.75;;;6.04;84.75
21129;BME280;10722;51.910;8.352;2023-04-20T04:01:36;101137.03;;;6.21;84.81
21129;BME280;10722;51.910;8.352;2023-04-20T04:04:22;101134.47;;;6.00;84.93
21129;BME280;10722;51.910;8.352;2023-04-20T04:07:07;101133.59;;;6.00;85.40
21129;BME280;10722;51.910;8.352;2023-04-20T04:09:52;101131.16;;;6.03;85.42
21129;BME280;10722;51.910;8.352;2023-04-20T04:12:37;101134.72;;;6.06;85.88
21129;BME280;10722;51.910;8.352;2023-04-20T04:15:22;101135.25;;;5.99;85.95
21129;BME280;10722;51.910;8.352;2023-04-20T04:18:08;101139.38;;;5.96;86.23
21129;BME280;10722;51.910;8.352;2023-04-20T04:20:53;101131.63;;;5.94;86.60
21129;BME280;10722;51.910;8.352;2023-04-20T04:23:38;101137.69;;;5.96;86.52
21129;BME280;10722;51.910;8.352;2023-04-20T04:26:23;101135.66;;;6.09;86.55
21129;BME280;10722;51.910;8.352;2023-04-20T04:29:08;101142.34;;;6.05;86.10
21129;BME280;10722;51.910;8.352;2023-04-20T04:31:53;101139.50;;;5.99;87.16
21129;BME280;10722;51.910;8.352;2023-04-20T04:34:38;101138.34;;;6.12;87.34
21129;BME280;10722;51.910;8.352;2023-04-20T04:37:23;101146.94;;;6.12;87.97
21129;BME280;10722;51.910;8.352;2023-04-20T04:40:08;101154.31;;;6.04;89.08
21129;BME280;10722;51.910;8.352;2023-04-20T04:42:53;101165.59;;;6.08;89.78
21129;BME280;10722;51.910;8.352;2023-04-20T04:45:39;101164.91;;;5.93;90.91
21129;BME280;10722;51.910;8.352;2023-04-20T04:48:24;101173.97;;;5.84;91.65
21129;BME280;10722;51.910;8.352;2023-04-20T04:51:09;101171.53;;;5.68;92.73
21129;BME280;10722;51.910;8.352;2023-04-20T04:53:54;101175.78;;;5.68;94.14
21129;BME280;10722;51.910;8.352;2023-04-20T04:56:39;101174.78;;;5.64;95.33
21129;BME280;10722;51.910;8.352;2023-04-20T04:59:24;101176.47;;;5.64;96.26
21129;BME280;10722;51.910;8.352;2023-04-20T05:02:09;101171.13;;;5.59;97.31
21129;BME280;10722;51.910;8.352;2023-04-20T05:04:54;101168.78;;;5.64;97.83
21129;BME280;10722;51.910;8.352;2023-04-20T05:07:39;101167.09;;;5.64;97.91
21129;BME280;10722;51.910;8.352;2023-04-20T05:10:25;101170.25;;;5.58;98.27
21129;BME280;10722;51.910;8.352;2023-04-20T05:13:10;101167.59;;;5.57;98.94
21129;BME280;10722;51.910;8.352;2023-04-20T05:15:55;101177.28;;;5.62;99.13
21129;BME280;10722;51.910;8.352;2023-04-20T05:18:41;101170.38;;;5.61;99.17
21129;BME280;10722;51.910;8.352;2023-04-20T05:21:26;101172.22;;;5.64;99.01
21129;BME280;10722;51.910;8.352;2023-04-20T05:24:11;101178.97;;;5.62;99.10
21129;BME280;10722;51.910;8.352;2023-04-20T05:26:56;101164.28;;;5.59;99.14
21129;BME280;10722;51.910;8.352;2023-04-20T05:29:41;101167.22;;;5.67;98.83
21129;BME280;10722;51.910;8.352;2023-04-20T05:32:27;101167.00;;;5.62;98.48
21129;BME280;10722;51.910;8.352;2023-04-20T05:35:12;101162.81;;;5.65;98.71
21129;BME280;10722;51.910;8.352;2023-04-20T05:37:57;101163.97;;;5.71;98.17
21129;BME280;10722;51.910;8.352;2023-04-20T05:40:42;101164.31;;;5.79;98.28
21129;BME280;10722;51.910;8.352;2023-04-20T05:43:27;101169.38;;;5.77;98.66
21129;BME280;10722;51.910;8.352;2023-04-20T05:46:12;101162.34;;;5.73;98.39
21129;BME280;10722;51.910;8.352;2023-04-20T05:48:57;101167.09;;;5.64;98.52
21129;BME280;10722;51.910;8.352;2023-04-20T05:51:42;101157.41;;;5.58;98.63
21129;BME280;10722;51.910;8.352;2023-04-20T05:54:27;101165.59;;;5.69;98.68
21129;BME280;10722;51.910;8.352;2023-04-20T05:57:12;101166.81;;;5.77;98.89
21129;BME280;10722;51.910;8.352;2023-04-20T05:59:58;101170.41;;;5.81;98.53
21129;BME280;10722;51.910;8.352;2023-04-20T06:02:43;101164.03;;;5.92;98.24
21129;BME280;10722;51.910;8.352;2023-04-20T06:05:28;101164.91;;;5.93;97.69
21129;BME280;10722;51.910;8.352;2023-04-20T06:08:14;101161.13;;;5.84;98.04
21129;BME280;10722;51.910;8.352;2023-04-20T06:10:59;101160.38;;;5.87;97.38
21129;BME280;10722;51.910;8.352;2023-04-20T06:13:43;101159.38;;;5.83;97.66
21129;BME280;10722;51.910;8.352;2023-04-20T06:16:28;101165.06;;;5.96;97.97
21129;BME280;10722;51.910;8.352;2023-04-20T06:19:14;101160.31;;;6.05;98.01
21129;BME280;10722;51.910;8.352;2023-04-20T06:21:59;101157.31;;;5.94;97.37
21129;BME280;10722;51.910;8.352;2023-04-20T06:24:45;101153.06;;;5.95;97.63
21129;BME280;10722;51.910;8.352;2023-04-20T06:27:30;101155.38;;;5.90;97.50
21129;BME280;10722;51.910;8.352;2023-04-20T06:30:15;101152.47;;;5.82;97.58
21129;BME280;10722;51.910;8.352;2023-04-20T06:33:01;101157.47;;;5.79;97.65
21129;BME280;10722;51.910;8.352;2023-04-20T06:35:46;101158.91;;;5.92;97.54
21129;BME280;10722;51.910;8.352;2023-04-20T06:38:32;101155.31;;;5.89;97.11
21129;BME280;10722;51.910;8.352;2023-04-20T06:41:17;101154.50;;;5.90;97.39
21129;BME280;10722;51.910;8.352;2023-04-20T06:44:01;101148.03;;;5.98;97.01
21129;BME280;10722;51.910;8.352;2023-04-20T06:46:46;101155.59;;;6.14;96.77
21129;BME280;10722;51.910;8.352;2023-04-20T06:49:32;101152.75;;;6.08;96.34
21129;BME280;10722;51.910;8.352;2023-04-20T06:52:17;101150.16;;;6.08;96.25
21129;BME280;10722;51.910;8.352;2023-04-20T06:55:01;101151.19;;;6.12;95.93
21129;BME280;10722;51.910;8.352;2023-04-20T06:57:46;101145.13;;;6.10;95.84
21129;BME280;10722;51.910;8.352;2023-04-20T07:00:31;101137.53;;;6.13;95.78
21129;BME280;10722;51.910;8.352;2023-04-20T07:03:16;101147.53;;;6.26;95.71
21129;BME280;10722;51.910;8.352;2023-04-20T07:06:02;101128.69;;;6.06;94.63
21129;BME280;10722;51.910;8.352;2023-04-20T07:08:47;101124.66;;;6.11;94.78
21129;BME280;10722;51.910;8.352;2023-04-20T07:11:33;101141.22;;;6.19;94.94
21129;BME280;10722;51.910;8.352;2023-04-20T07:14:18;101139.72;;;6.24;94.85
21129;BME280;10722;51.910;8.352;2023-04-20T07:17:03;101128.72;;;6.27;94.42
21129;BME280;10722;51.910;8.352;2023-04-20T07:19:48;101124.91;;;6.17;94.08
21129;BME280;10722;51.910;8.352;2023-04-20T07:22:34;101140.94;;;6.33;94.30
21129;BME280;10722;51.910;8.352;2023-04-20T07:25:19;101131.81;;;6.39;94.09
21129;BME280;10722;51.910;8.352;2023-04-20T07:28:04;101124.09;;;6.39;93.47
21129;BME280;10722;51.910;8.352;2023-04-20T07:30:49;101123.88;;;6.35;92.93
21129;BME280;10722;51.910;8.352;2023-04-20T07:33:35;101118.16;;;6.42;92.34
21129;BME280;10722;51.910;8.352;2023-04-20T07:36:19;101107.44;;;6.52;92.22
21129;BME280;10722;51.910;8.352;2023-04-20T07:39:05;101100.06;;;6.39;91.58
21129;BME280;10722;51.910;8.352;2023-04-20T07:41:50;101100.13;;;6.40;91.37
21129;BME280;10722;51.910;8.352;2023-04-20T07:44:35;101101.38;;;6.29;91.16
21129;BME280;10722;51.910;8.352;2023-04-20T07:47:20;101101.94;;;6.43;91.18
21129;BME280;10722;51.910;8.352;2023-04-20T07:50:06;101095.03;;;6.63;90.86
21129;BME280;10722;51.910;8.352;2023-04-20T07:52:52;101096.25;;;6.72;90.04
21129;BME280;10722;51.910;8.352;2023-04-20T07:55:37;101083.06;;;6.86;89.46
21129;BME280;10722;51.910;8.352;2023-04-20T07:58:22;101082.41;;;6.91;88.71
21129;BME280;10722;51.910;8.352;2023-04-20T08:01:07;101078.44;;;7.00;88.23
21129;BME280;10722;51.910;8.352;2023-04-20T08:03:51;101069.97;;;7.02;87.71
21129;BME280;10722;51.910;8.352;2023-04-20T08:06:37;101073.00;;;6.92;87.03
21129;BME280;10722;51.910;8.352;2023-04-20T08:09:22;101077.28;;;6.91;86.75
21129;BME280;10722;51.910;8.352;2023-04-20T08:12:07;101069.25;;;7.06;86.73
21129;BME280;10722;51.910;8.352;2023-04-20T08:14:53;101066.84;;;7.11;86.21
21129;BME280;10722;51.910;8.352;2023-04-20T08:17:38;101069.72;;;7.18;86.15
21129;BME280;10722;51.910;8.352;2023-04-20T08:20:24;101054.22;;;7.17;85.51
21129;BME280;10722;51.910;8.352;2023-04-20T08:23:09;101058.25;;;7.10;85.48
21129;BME280;10722;51.910;8.352;2023-04-20T08:25:54;101049.25;;;7.22;85.20
21129;BME280;10722;51.910;8.352;2023-04-20T08:28:40;101053.56;;;7.23;85.04
21129;BME280;10722;51.910;8.352;2023-04-20T08:31:25;101051.81;;;7.22;84.40
21129;BME280;10722;51.910;8.352;2023-04-20T08:34:11;101053.28;;;7.39;84.01
21129;BME280;10722;51.910;8.352;2023-04-20T08:36:57;101044.16;;;7.47;83.64
21129;BME280;10722;51.910;8.352;2023-04-20T08:39:41;101038.94;;;7.46;82.93
21129;BME280;10722;51.910;8.352;2023-04-20T08:42:27;101043.00;;;7.39;82.50
21129;BME280;10722;51.910;8.352;2023-04-20T08:45:12;101037.91;;;7.40;82.14
21129;BME280;10722;51.910;8.352;2023-04-20T08:47:57;101038.44;;;7.32;82.17
21129;BME280;10722;51.910;8.352;2023-04-20T08:50:43;101036.09;;;7.38;81.87
21129;BME280;10722;51.910;8.352;2023-04-20T08:53:29;101038.63;;;7.36;81.92
21129;BME280;10722;51.910;8.352;2023-04-20T08:56:14;101043.53;;;7.54;81.50
21129;BME280;10722;51.910;8.352;2023-04-20T08:59:00;101030.88;;;7.60;80.89
21129;BME280;10722;51.910;8.352;2023-04-20T09:01:45;101033.03;;;7.74;80.56
21129;BME280;10722;51.910;8.352;2023-04-20T09:04:31;101031.38;;;7.76;80.10
21129;BME280;10722;51.910;8.352;2023-04-20T09:07:18;101023.44;;;7.95;79.83
21129;BME280;10722;51.910;8.352;2023-04-20T09:10:04;101019.00;;;7.91;79.51
21129;BME280;10722;51.910;8.352;2023-04-20T09:12:49;101017.34;;;7.92;79.08
21129;BME280;10722;51.910;8.352;2023-04-20T09:15:34;101010.38;;;7.89;78.95
21129;BME280;10722;51.910;8.352;2023-04-20T09:18:19;101022.78;;;8.01;78.94
21129;BME280;10722;51.910;8.352;2023-04-20T09:21:09;101027.72;;;7.95;78.80
21129;BME280;10722;51.910;8.352;2023-04-20T09:24:04;101015.22;;;8.05;78.88
21129;BME280;10722;51.910;8.352;2023-04-20T09:26:49;101000.66;;;8.07;78.46
21129;BME280;10722;51.910;8.352;2023-04-20T09:29:34;101010.53;;;8.21;78.06
21129;BME280;10722;51.910;8.352;2023-04-20T09:32:23;100998.59;;;8.24;77.38
21129;BME280;10722;51.910;8.352;2023-04-20T09:35:09;101002.03;;;8.23;77.33
21129;BME280;10722;51.910;8.352;2023-04-20T09:37:54;100995.34;;;8.30;77.00
21129;BME280;10722;51.910;8.352;2023-04-20T09:40:39;101009.34;;;8.38;76.81
21129;BME280;10722;51.910;8.352;2023-04-20T09:43:26;100998.53;;;8.48;76.24
21129;BME280;10722;51.910;8.352;2023-04-20T09:46:11;100997.25;;;8.63;76.36
21129;BME280;10722;51.910;8.352;2023-04-20T09:48:58;100999.69;;;8.88;75.52
21129;BME280;10722;51.910;8.352;2023-04-20T09:51:43;100993.94;;;9.62;74.69
21129;BME280;10722;51.910;8.352;2023-04-20T09:54:29;100962.31;;;10.42;72.50
21129;BME280;10722;51.910;8.352;2023-04-20T09:57:14;100898.06;;;9.84;69.40
21129;BME280;10722;51.910;8.352;2023-04-20T10:00:01;100905.13;;;9.57;69.85
21129;BME280;10722;51.910;8.352;2023-04-20T10:02:46;100918.78;;;9.51;70.27
21129;BME280;10722;51.910;8.352;2023-04-20T10:05:33;100911.38;;;9.65;69.50
21129;BME280;10722;51.910;8.352;2023-04-20T10:08:18;100910.56;;;9.66;69.23
21129;BME280;10722;51.910;8.352;2023-04-20T10:11:04;100904.13;;;9.50;69.62
21129;BME280;10722;51.910;8.352;2023-04-20T10:13:49;100917.38;;;9.29;69.78
21129;BME280;10722;51.910;8.352;2023-04-20T10:16:34;100927.78;;;9.32;69.50
21129;BME280;10722;51.910;8.352;2023-04-20T10:19:20;100931.44;;;9.40;69.66
21129;BME280;10722;51.910;8.352;2023-04-20T10:22:06;100909.72;;;9.34;68.74
21129;BME280;10722;51.910;8.352;2023-04-20T10:24:51;100896.03;;;9.36;68.29
21129;BME280;10722;51.910;8.352;2023-04-20T10:27:37;100899.00;;;9.52;67.94
21129;BME280;10722;51.910;8.352;2023-04-20T10:30:23;100888.56;;;9.49;67.61
21129;BME280;10722;51.910;8.352;2023-04-20T10:33:11;100890.88;;;9.36;67.43
21129;BME280;10722;51.910;8.352;2023-04-20T10:35:56;100889.00;;;9.31;67.03
21129;BME280;10722;51.910;8.352;2023-04-20T10:38:42;100890.78;;;9.33;67.49
21129;BME280;10722;51.910;8.352;2023-04-20T10:41:27;100886.78;;;9.45;67.24
21129;BME280;10722;51.910;8.352;2023-04-20T10:44:12;100892.19;;;9.55;67.37
21129;BME280;10722;51.910;8.352;2023-04-20T10:46:58;100889.63;;;9.55;67.25
21129;BME280;10722;51.910;8.352;2023-04-20T10:49:43;100892.75;;;9.78;67.21
21129;BME280;10722;51.910;8.352;2023-04-20T10:52:36;100882.78;;;9.57;66.61
21129;BME280;10722;51.910;8.352;2023-04-20T10:55:24;100899.91;;;9.54;67.46
21129;BME280;10722;51.910;8.352;2023-04-20T10:58:20;100920.94;;;9.34;67.93
21129;BME280;10722;51.910;8.352;2023-04-20T11:01:05;100924.94;;;9.56;68.60
21129;BME280;10722;51.910;8.352;2023-04-20T11:03:50;100918.25;;;9.64;68.13
21129;BME280;10722;51.910;8.352;2023-04-20T11:06:40;100907.38;;;9.43;68.06
21129;BME280;10722;51.910;8.352;2023-04-20T11:09:25;100926.44;;;9.47;68.39
21129;BME280;10722;51.910;8.352;2023-04-20T11:12:11;100916.19;;;9.51;68.41
21129;BME280;10722;51.910;8.352;2023-04-20T11:14:56;100911.50;;;9.71;68.33
21129;BME280;10722;51.910;8.352;2023-04-20T11:17:41;100901.75;;;9.58;67.65
21129;BME280;10722;51.910;8.352;2023-04-20T11:20:26;100893.59;;;9.77;67.16
21129;BME280;10722;51.910;8.352;2023-04-20T11:23:11;100870.03;;;9.65;66.40
21129;BME280;10722;51.910;8.352;2023-04-20T11:25:56;100877.25;;;9.78;66.44
21129;BME280;10722;51.910;8.352;2023-04-20T11:28:53;100882.22;;;9.71;66.88
21129;BME280;10722;51.910;8.352;2023-04-20T11:31:40;100884.78;;;9.69;67.10
21129;BME280;10722;51.910;8.352;2023-04-20T11:34:25;100887.56;;;9.78;67.31
21129;BME280;10722;51.910;8.352;2023-04-20T11:37:11;100904.03;;;10.20;67.26
21129;BME280;10722;51.910;8.352;2023-04-20T11:40:03;100919.84;;;10.74;67.29
21129;BME280;10722;51.910;8.352;2023-04-20T11:42:49;100870.91;;;10.87;65.39
21129;BME280;10722;51.910;8.352;2023-04-20T11:45:33;100840.53;;;10.76;63.89
21129;BME280;10722;51.910;8.352;2023-04-20T11:48:21;100838.09;;;10.86;63.50
21129;BME280;10722;51.910;8.352;2023-04-20T11:51:06;100829.28;;;10.74;62.86
21129;BME280;10722;51.910;8.352;2023-04-20T11:53:51;100830.03;;;10.69;63.07
21129;BME280;10722;51.910;8.352;2023-04-20T11:56:36;100840.59;;;10.80;63.13
21129;BME280;10722;51.910;8.352;2023-04-20T11:59:21;100849.69;;;10.59;63.68
21129;BME280;10722;51.910;8.352;2023-04-20T12:02:06;100850.56;;;10.61;63.77
21129;BME280;10722;51.910;8.352;2023-04-20T12:04:51;100861.84;;;10.22;64.42
21129;BME280;10722;51.910;8.352;2023-04-20T12:07:37;100871.28;;;10.20;64.79
21129;BME280;10722;51.910;8.352;2023-04-20T12:10:22;100855.16;;;9.91;64.56
21129;BME280;10722;51.910;8.352;2023-04-20T12:13:07;100865.69;;;10.00;64.59
21129;BME280;10722;51.910;8.352;2023-04-20T12:15:52;100861.44;;;10.04;64.39
21129;BME280;10722;51.910;8.352;2023-04-20T12:18:38;100871.34;;;10.23;64.58
21129;BME280;10722;51.910;8.352;2023-04-20T12:21:23;100868.34;;;10.43;64.38
21129;BME280;10722;51.910;8.352;2023-04-20T12:24:08;100866.63;;;10.87;64.31
21129;BME280;10722;51.910;8.352;2023-04-20T12:26:53;100847.09;;;11.06;63.25
21129;BME280;10722;51.910;8.352;2023-04-20T12:29:38;100815.63;;;10.82;62.10
21129;BME280;10722;51.910;8.352;2023-04-20T12:32:24;100785.19;;;10.68;60.93
21129;BME280;10722;51.910;8.352;2023-04-20T12:35:09;100799.31;;;10.87;60.56
21129;BME280;10722;51.910;8.352;2023-04-20T12:37:55;100793.38;;;11.48;60.11
21129;BME280;10722;51.910;8.352;2023-04-20T12:40:40;100777.28;;;12.39;58.31
21129;BME280;10722;51.910;8.352;2023-04-20T12:43:25;100714.66;;;12.90;55.45
21129;BME280;10722;51.910;8.352;2023-04-20T12:46:10;100729.16;;;12.68;56.33
21129;BME280;10722;51.910;8.352;2023-04-20T12:48:55;100755.47;;;12.17;57.63
21129;BME280;10722;51.910;8.352;2023-04-20T12:51:41;100775.72;;;11.81;58.24
21129;BME280;10722;51.910;8.352;2023-04-20T12:54:26;100783.50;;;11.80;59.28
21129;BME280;10722;51.910;8.352;2023-04-20T12:57:11;100774.84;;;12.52;57.96
21129;BME280;10722;51.910;8.352;2023-04-20T12:59:57;100746.91;;;12.27;56.63
21129;BME280;10722;51.910;8.352;2023-04-20T13:02:42;100741.59;;;11.49;57.23
21129;BME280;10722;51.910;8.352;2023-04-20T13:05:28;100769.72;;;11.25;58.87
21129;BME280;10722;51.910;8.352;2023-04-20T13:08:13;100777.88;;;11.51;58.70
21129;BME280;10722;51.910;8.352;2023-04-20T13:10:58;100762.56;;;11.66;57.94
21129;BME280;10722;51.910;8.352;2023-04-20T13:13:43;100752.59;;;11.95;57.30
21129;BME280;10722;51.910;8.352;2023-04-20T13:16:29;100741.59;;;11.51;56.89
21129;BME280;10722;51.910;8.352;2023-04-20T13:19:14;100757.97;;;12.12;57.01
21129;BME280;10722;51.910;8.352;2023-04-20T13:21:59;100740.13;;;12.41;55.98
21129;BME280;10722;51.910;8.352;2023-04-20T13:24:45;100724.94;;;11.96;56.36
21129;BME280;10722;51.910;8.352;2023-04-20T13:27:30;100745.31;;;11.71;57.54
21129;BME280;10722;51.910;8.352;2023-04-20T13:30:16;100771.75;;;12.06;57.60
21129;BME280;10722;51.910;8.352;2023-04-20T13:33:01;100760.00;;;11.71;57.19
21129;BME280;10722;51.910;8.352;2023-04-20T13:35:47;100734.56;;;11.40;56.72
21129;BME280;10722;51.910;8.352;2023-04-20T13:38:32;100747.97;;;11.13;57.46
21129;BME280;10722;51.910;8.352;2023-04-20T13:41:17;100765.72;;;11.45;58.08
21129;BME280;10722;51.910;8.352;2023-04-20T13:44:03;100769.59;;;12.46;57.47
21129;BME280;10722;51.910;8.352;2023-04-20T13:46:48;100719.31;;;13.33;54.88
21129;BME280;10722;51.910;8.352;2023-04-20T13:49:33;100714.28;;;13.66;53.76
21129;BME280;10722;51.910;8.352;2023-04-20T13:52:18;100663.66;;;13.06;53.04
21129;BME280;10722;51.910;8.352;2023-04-20T13:55:04;100669.78;;;13.10;52.72
21129;BME280;10722;51.910;8.352;2023-04-20T13:57:49;100661.09;;;12.05;54.01
21129;BME280;10722;51.910;8.352;2023-04-20T14:00:35;100681.81;;;12.02;54.59
21129;BME280;10722;51.910;8.352;2023-04-20T14:03:20;100687.47;;;11.72;55.27
21129;BME280;10722;51.910;8.352;2023-04-20T14:06:06;100689.63;;;11.38;55.37
21129;BME280;10722;51.910;8.352;2023-04-20T14:08:52;100693.06;;;11.36;55.84
21129;BME280;10722;51.910;8.352;2023-04-20T14:11:37;100678.53;;;11.47;55.17
21129;BME280;10722;51.910;8.352;2023-04-20T14:14:23;100682.84;;;12.17;54.71
21129;BME280;10722;51.910;8.352;2023-04-20T14:17:09;100685.00;;;12.62;54.42
21129;BME280;10722;51.910;8.352;2023-04-20T14:19:53;100669.38;;;12.61;53.85
21129;BME280;10722;51.910;8.352;2023-04-20T14:22:38;100652.81;;;12.43;53.52
21129;BME280;10722;51.910;8.352;2023-04-20T14:25:24;100637.19;;;12.39;52.95
21129;BME280;10722;51.910;8.352;2023-04-20T14:28:11;100651.72;;;12.17;53.54
21129;BME280;10722;51.910;8.352;2023-04-20T14:30:56;100644.38;;;11.82;53.99
21129;BME280;10722;51.910;8.352;2023-04-20T14:33:41;100670.69;;;12.16;54.72